• Join FlightAware (Why Join?)
  • Login
  • US Flag 
05:34AM EDT


 

Airport Tracker/Info


-or-


 

Live Flight TrackerFlight Track Log ✈ UAL1493 ✈ 31-Jul-2013 ✈ CYYC - KORD

Flight Track Log - Related Links

Times and Time Zones

All times are in EDT time to prevent confusion due to time zone crossing. See the UAL1493 flight status page for this flight to view local times or setup timezone preferences in your user account.

Time Position Orientation Groundspeed Altitude Reporting Facility
EDT Latitude Longitude Course Direction KTS MPH feet Rate Location/Type
10:04AM 51.1000 -114.0333 121° Southeast 170 196 4,500  Level Edmonton Center
10:05AM 51.1667 -114.0167 North 220 253 7,100 2,760 Climbing Edmonton Center
10:06AM 51.1667 -113.9167 90° East 290 334 10,100 2,760 Climbing Edmonton Center
10:07AM 50.8898 -113.2527 118° Southeast  Level FlightAware Approximate
10:07AM 51.1000 -113.8000 132° Southeast 340 391 12,700  Level Edmonton Center
10:08AM 50.8232 -113.0721 121° Southeast  Level FlightAware Approximate
10:08AM 51.0500 -113.6667 121° Southeast 350 403 16,000  Level Edmonton Center
10:09AM 50.7557 -112.8925 121° Southeast  Level FlightAware Approximate
10:09AM 50.9833 -113.5500 132° Southeast 380 437 18,400  Level Edmonton Center
10:10AM 50.9167 -113.4000 125° Southeast 390 449 21,200 2,700 Climbing Edmonton Center
10:11AM 50.8667 -113.2667 121° Southeast 400 460 23,800 2,280 Climbing Edmonton Center
10:12AM 50.8000 -113.0833 120° Southeast 410 472 25,800 1,980 Climbing Edmonton Center
10:13AM 50.7333 -112.9167 122° Southeast 430 495 27,800 1,860 Climbing Edmonton Center
10:14AM 50.6667 -112.7667 125° Southeast 440 506 29,600 1,680 Climbing Edmonton Center
10:15AM 50.6167 -112.6000 115° Southeast 450 518 31,200 1,500 Climbing Edmonton Center
10:16AM 50.5500 -112.4333 122° Southeast 460 529 32,700 1,620 Climbing Edmonton Center
10:17AM 50.4667 -112.2333 123° Southeast 460 529 34,500 1,560 Climbing Edmonton Center
10:18AM 50.4167 -112.0667 115° Southeast 460 529 35,900 1,200 Climbing Edmonton Center
10:19AM 50.3500 -111.8833 120° Southeast 460 529 36,900 840 Climbing Edmonton Center
10:20AM 50.2833 -111.7167 122° Southeast 470 541 37,600 720 Climbing Edmonton Center
10:21AM 50.2167 -111.5333 120° Southeast 480 552 38,400 660 Climbing Edmonton Center
10:22AM 50.1333 -111.3667 128° Southeast 480 552 39,000 300 Climbing Edmonton Center
10:23AM 50.0667 -111.1667 117° Southeast 490 564 39,000  Level Edmonton Center
10:24AM 50.0167 -111.0000 115° Southeast 490 564 39,000  Level Edmonton Center
10:25AM 49.9333 -110.8000 123° Southeast 490 564 39,000  Level Edmonton Center
10:26AM 49.8667 -110.6333 122° Southeast 480 552 39,000  Level Edmonton Center
10:27AM 49.7833 -110.4500 125° Southeast 480 552 39,000  Level Edmonton Center
10:28AM 49.7333 -110.2833 115° Southeast 480 552 39,000  Level Edmonton Center
10:29AM 49.6500 -110.0833 123° Southeast 480 552 39,000  Level Edmonton Center
10:30AM 49.5667 -109.9333 131° Southeast 490 564 39,000  Level Edmonton Center
10:31AM 49.5000 -109.7333 117° Southeast 490 564 39,000  Level Edmonton Center
10:32AM 49.4333 -109.5500 119° Southeast 490 564 39,000  Level Edmonton Center
10:33AM 49.3667 -109.3833 122° Southeast 490 564 39,000  Level Edmonton Center
10:34AM 49.2833 -109.2000 125° Southeast 490 564 39,000  Level Edmonton Center
10:35AM 49.2167 -109.0167 119° Southeast 490 564 39,000  Level Edmonton Center
10:36AM 49.1500 -108.8167 117° Southeast 490 564 39,000  Level Edmonton Center
10:37AM 49.0667 -108.6667 130° Southeast 490 564 39,000  Level Edmonton Center
10:38AM 48.9833 -108.4833 125° Southeast 500 575 39,000  Level Edmonton Center
10:39AM 48.9167 -108.3000 119° Southeast 500 575 39,000  Level Edmonton Center
10:40AM 48.8333 -108.1000 122° Southeast 490 564 39,000  Level Edmonton Center
10:41AM 48.7667 -107.9500 124° Southeast 490 564 39,000  Level Edmonton Center
10:42AM 48.6833 -107.8000 130° Southeast 490 564 39,000  Level Edmonton Center
10:42AM 48.6858 -107.6925 88° East 495 570 39,000  Level Salt Lake Center
10:43AM 48.6106 -107.5158 123° Southeast 499 574 39,000 -60 Level Salt Lake Center
10:44AM 48.5347 -107.3431 123° Southeast 497 572 38,900  Descending Salt Lake Center
10:45AM 48.4567 -107.1689 124° Southeast 501 577 39,000  Climbing Salt Lake Center
10:46AM 48.3792 -106.9936 124° Southeast 503 579 38,900  Descending Salt Lake Center
10:47AM 48.2878 -106.7844 123° Southeast 503 579 39,000  Climbing Salt Lake Center
10:48AM 48.2078 -106.6117 125° Southeast 504 580 39,000  Level Salt Lake Center
10:49AM 48.1347 -106.4314 121° Southeast 508 585 39,000  Level Salt Lake Center
10:50AM 48.0594 -106.2522 122° Southeast 508 585 39,000  Level Salt Lake Center
10:51AM 47.9875 -106.0725 121° Southeast 508 585 39,000  Level Salt Lake Center
10:52AM 47.9100 -105.8931 123° Southeast 512 589 39,000 -60 Level Salt Lake Center
10:54AM 47.8214 -105.6783 122° Southeast 512 589 38,900 -60 Descending Salt Lake Center
10:55AM 47.7431 -105.4981 123° Southeast 516 594 38,900  Level Salt Lake Center
10:56AM 47.6653 -105.3186 123° Southeast 519 597 39,000  Climbing Salt Lake Center
10:57AM 47.5903 -105.1400 122° Southeast 516 594 39,000 -60 Level Salt Lake Center
10:58AM 47.5103 -104.9611 123° Southeast 519 597 38,900  Descending Salt Lake Center
10:59AM 47.4342 -104.7828 122° Southeast 520 598 39,000  Climbing Salt Lake Center
11:00AM 47.3397 -104.5689 123° Southeast 521 600 39,000 -60 Level Salt Lake Center
11:01AM 47.2633 -104.3917 122° Southeast 520 598 38,900  Descending Salt Lake Center
11:02AM 47.1844 -104.2164 123° Southeast 519 597 39,000  Climbing Salt Lake Center
11:03AM 47.1067 -104.0411 123° Southeast 518 596 39,000 -60 Level Salt Lake Center
11:04AM 47.0136 -103.8325 123° Southeast 517 595 38,900  Descending Salt Lake Center
11:05AM 46.9356 -103.6606 124° Southeast 514 592 39,000  Climbing Salt Lake Center
11:06AM 46.8564 -103.4864 124° Southeast 515 593 39,000  Level Salt Lake Center
11:07AM 46.7778 -103.3147 124° Southeast 514 592 39,000  Level Salt Lake Center
11:08AM 46.6997 -103.1425 123° Southeast 513 590 39,000  Level Salt Lake Center
11:09AM 46.6208 -102.9703 124° Southeast 513 590 39,000  Level Salt Lake Center
11:10AM 46.5233 -102.7692 125° Southeast 512 589 39,000 -60 Level Salt Lake Center
11:11AM 46.4436 -102.5958 124° Southeast 514 592 38,900  Descending Salt Lake Center
11:12AM 46.3633 -102.4264 124° Southeast 514 592 39,000  Climbing Salt Lake Center
11:13AM 46.2806 -102.2572 125° Southeast 516 594 39,000  Level Salt Lake Center
11:14AM 46.1994 -102.0828 124° Southeast 518 596 39,000  Level Salt Lake Center
11:15AM 46.1292 -101.9017 119° Southeast 519 597 39,000  Level Salt Lake Center
11:16AM 46.0683 -101.6447 109° East 528 608 39,000  Level Minneapolis Center
11:18AM 46.0081 -101.4042 110° East 530 610 39,000  Level Minneapolis Center
11:19AM 45.9575 -101.2025 110° East 534 615 39,000  Level Minneapolis Center
11:20AM 45.9053 -101.0036 111° Southeast 533 613 39,000  Level Minneapolis Center
11:21AM 45.8539 -100.8000 110° East 537 618 39,000  Level Minneapolis Center
11:22AM 45.8017 -100.5978 110° East 540 621 39,000  Level Minneapolis Center
11:23AM 45.7483 -100.3967 111° Southeast 539 620 39,000  Level Minneapolis Center
11:24AM 45.6942 -100.1947 111° Southeast 541 623 39,000  Level Minneapolis Center
11:25AM 45.6297 -99.9553 111° Southeast 536 617 39,000  Level Minneapolis Center
11:26AM 45.5744 -99.7550 111° Southeast 537 618 39,000  Level Minneapolis Center
11:27AM 45.5197 -99.5531 111° Southeast 540 621 39,000  Level Minneapolis Center
11:28AM 45.4647 -99.3531 111° Southeast 540 621 39,000  Level Minneapolis Center
11:29AM 45.4089 -99.1528 112° Southeast 540 621 39,000  Level Minneapolis Center
11:30AM 45.3528 -98.9544 112° Southeast 539 620 39,000  Level Minneapolis Center
11:31AM 45.2969 -98.7569 112° Southeast 538 619 39,000  Level Minneapolis Center
11:32AM 45.2414 -98.5600 112° Southeast 537 618 39,000  Level Minneapolis Center
11:33AM 45.1617 -98.2864 112° Southeast 535 616 39,000  Level Minneapolis Center
11:34AM 45.1050 -98.0894 112° Southeast 538 619 39,000  Level Minneapolis Center
11:35AM 45.0472 -97.8939 113° Southeast 533 613 39,000  Level Minneapolis Center
11:36AM 44.9897 -97.6997 113° Southeast 535 616 39,000  Level Minneapolis Center
11:37AM 44.9311 -97.5056 113° Southeast 539 620 39,000  Level Minneapolis Center
11:38AM 44.8733 -97.3117 113° Southeast 536 617 39,000  Level Minneapolis Center
11:39AM 44.8028 -97.0803 113° Southeast 536 617 39,000  Level Minneapolis Center
11:40AM 44.7431 -96.8886 114° Southeast 536 617 39,000  Level Minneapolis Center
11:42AM 44.6842 -96.6947 113° Southeast 537 618 39,000  Level Minneapolis Center
11:43AM 44.6258 -96.5006 113° Southeast 538 619 39,000  Level Minneapolis Center
11:44AM 44.5833 -96.3419 111° Southeast 539 620 39,000  Level Minneapolis Center
11:45AM 44.5200 -96.1031 110° East 539 620 39,000  Level Minneapolis Center
11:46AM 44.4756 -95.9444 111° Southeast 540 621 39,000  Level Minneapolis Center
11:47AM 44.4097 -95.7069 111° Southeast 542 624 39,000  Level Minneapolis Center
11:48AM 44.3442 -95.4711 111° Southeast 540 621 39,000  Level Minneapolis Center
11:49AM 44.2878 -95.2747 112° Southeast 543 625 39,000  Level Minneapolis Center
11:51AM 44.1764 -94.8869 112° Southeast 539 620 39,000  Level Minneapolis Center
11:52AM 44.1100 -94.6542 112° Southeast 540 621 39,000  Level Minneapolis Center
11:53AM 44.0528 -94.4611 112° Southeast 540 621 39,000  Level Minneapolis Center
11:54AM 43.9847 -94.2311 112° Southeast 538 619 39,000  Level Minneapolis Center
11:56AM 43.9129 -94.0245 116° Southeast  Level FlightAware Approximate
11:56AM 43.8686 -93.8428 116° Southeast 533 613 39,000  Level Minneapolis Center
11:57AM 43.8014 -93.6186 112° Southeast 529 609 39,000  Level Minneapolis Center
11:58AM 43.7444 -93.4333 113° Southeast 527 606 39,000  Level Minneapolis Center
12:00PM 43.6878 -93.2489 113° Southeast 525 604 39,000  Level Minneapolis Center
12:01PM 43.6258 -93.0458 113° Southeast 526 605 39,000  Level Minneapolis Center
12:02PM 43.5689 -92.8631 113° Southeast 524 603 39,000  Level Minneapolis Center
12:03PM 43.5122 -92.6822 113° Southeast 521 600 39,000  Level Minneapolis Center
12:04PM 43.4431 -92.4642 114° Southeast 522 601 39,000  Level Minneapolis Center
12:05PM 43.3858 -92.2822 113° Southeast 521 600 39,000 -300 Level Minneapolis Center
12:06PM 43.3283 -92.0997 113° Southeast 523 602 38,400 -2,160 Descending Minneapolis Center
12:08PM 43.2208 -91.7711 114° Southeast 526 605 32,900 -2,760 Descending Chicago Center
12:09PM 43.1603 -91.5864 114° Southeast 529 609 31,000 -960 Descending Chicago Center
12:10PM 43.1000 -91.4086 115° Southeast 517 595 31,000  Level Chicago Center
12:11PM 43.0256 -91.1972 116° Southeast 514 592 31,000  Level Chicago Center
12:12PM 42.9647 -91.0233 116° Southeast 509 586 31,000 -180 Level Chicago Center
12:13PM 42.9039 -90.8489 115° Southeast 511 588 30,700 -960 Descending Chicago Center
12:14PM 42.8417 -90.6739 116° Southeast 514 592 29,100 -1,500 Descending Chicago Center
12:15PM 42.7789 -90.4983 116° Southeast 519 597 27,600 -1,500 Descending Chicago Center
12:16PM 42.7158 -90.3231 116° Southeast 514 592 26,000 -1,500 Descending Chicago Center
12:17PM 42.6453 -90.1233 116° Southeast 502 578 24,600 -1,020 Descending Chicago Center
12:18PM 42.6083 -89.9436 106° East 501 577 24,000 -780 Descending Chicago Center
12:19PM 42.5803 -89.7597 102° East 500 575 23,100 -960 Descending Chicago Center
12:20PM 42.5511 -89.5797 102° East 492 566 22,100 -1,080 Descending Chicago Center
12:21PM 42.5194 -89.3767 102° East 476 548 20,900 -1,020 Descending Chicago Center
12:22PM 42.4911 -89.2081 103° East 461 531 20,000 -1,020 Descending Chicago Center
12:23PM 42.4650 -89.0425 102° East 454 522 18,900 -1,740 Descending Chicago Center
12:24PM 42.4378 -88.8778 103° East 452 520 16,500 -2,460 Descending Chicago Center
12:25PM 42.4119 -88.7231 103° East 436 502 13,800 -2,760 Descending Chicago Center
12:26PM 42.3828 -88.5489 103° East 411 473 10,800 -1,860 Descending Chicago Center
12:27PM 42.3503 -88.4150 108° East 384 442 10,000 -420 Descending Chicago Center
12:28PM 42.2922 -88.3064 126° Southeast 364 419 10,000  Level Chicago Center
12:29PM 42.2292 -88.2022 129° Southeast 359 413 10,000  Level Chicago Center
12:30PM 42.1592 -88.1031 134° Southeast 364 419 10,000  Level Chicago Center
12:31PM 42.0700 -88.0022 140° Southeast 360 414 10,000  Level Chicago Center
12:32PM 42.0642 -87.8761 94° East 353 406 10,000 -540 Level Chicago Center
12:33PM 42.0703 -87.7628 86° East 310 357 9,000 -540 Descending Chicago Center
12:34PM 42.0725 -87.6589 88° East 286 329 9,000 -300 Level Chicago Center
12:35PM 42.0728 -87.5717 90° East 246 283 8,500 -960 Descending Chicago Center
12:37PM 42.0753 -87.4667 88° East 241 277 7,100 -720 Descending Chicago Center
12:38PM 42.0733 -87.3792 92° East 237 273 7,000 -60 Descending Chicago Center
12:39PM 42.0167 -87.3611 167° South 240 276 7,000  Level Chicago Center
12:40PM 41.9836 -87.4356 239° Southwest 218 251 7,000 -540 Level Chicago Center
12:41PM 41.9814 -87.5172 268° West 218 251 5,900 -1,200 Descending Chicago Center
12:42PM 41.9819 -87.6081 271° West 214 246 4,600 -1,140 Descending Chicago Center
12:44PM 41.9833 -87.7500 271° West 193 222 2,600 -1,020 Descending Chicago TRACON
12:45PM 41.9833 -87.8167 270° West 162 186 1,600 -900 Descending Chicago TRACON
12:46PM 41.9833 -87.8667 270° West 145 167 900 -780 Descending Chicago TRACON